Nearby METAR Reports

 

KOAK - Oakland, California, USA
Distance from station: SSW 6mi, 9km
Updated: Fri, 24-Mar-2017 11:53pm PDT
Overcast
Overcast
 Wind from SE
Wind: SE 6 mph , 9 km/h
Temperature: 55°F , 13°C
Dew Point: 54°F , 12°C
Humidity: 94%
Barometer: 30.18 inHg , 1022 hPa
Clouds: Overcast
Visibility: 9 miles , 14 km
Cloud details: Partly cloudy 1000 ft
Overcast 1400 ft
2017/03/25 06:53 KOAK 250653Z 14005KT 9SM SCT010 OVC014 13/12 A3018 RMK AO2 SLP219 T01330122
KHWD - Hayward, California, USA
Distance from station: SSE 8mi, 12km
Updated: Fri, 24-Mar-2017 11:54pm PDT
Overcast
Overcast
 Wind from SSE
Wind: SSE 5 mph , 7 km/h
Temperature: 55°F , 13°C
Dew Point: 50°F , 10°C
Humidity: 82%
Barometer: 30.17 inHg , 1021.7 hPa
Clouds: Overcast
Visibility: 10 miles , 16 km
Cloud details: Mostly cloudy 800 ft
Mostly cloudy 1700 ft
Overcast 6000 ft
2017/03/25 06:54 KHWD 250654Z 15004KT 10SM BKN008 BKN017 OVC060 13/10 A3017 RMK AO2 SLP225 T01330100
KSFO - San Francisco, California, USA
Distance from station: SW 15mi, 25km
Updated: Sat, 25-Mar-2017 12:32am PDT
Overcast
Overcast
 Wind from calm
Wind: Calm
Temperature: 54°F , 12°C
Dew Point: 52°F , 11°C
Humidity: 94%
Barometer: 30.17 inHg , 1021.7 hPa
Clouds: Overcast
Visibility: 10 miles , 16 km
Cloud details: Partly cloudy 1400 ft
Mostly cloudy 4700 ft
Overcast 9500 ft
2017/03/25 07:32 KSFO 250732Z 00000KT 10SM SCT014 BKN047 OVC095 12/11 A3017 RMK AO2 T01220106
 
KCCR - Concord, California, USA
Distance from station: NNE 17mi, 27km
Updated: Fri, 24-Mar-2017 11:53pm PDT
Overcast
Overcast
 Wind from calm
Wind: Calm
Temperature: 54°F , 12°C
Dew Point: 52°F , 11°C
Humidity: 94%
Barometer: 30.17 inHg , 1021.7 hPa
Clouds: Overcast
Visibility: 8 miles , 13 km
Cloud details: Overcast 11000 ft
2017/03/25 06:53 KCCR 250653Z 00000KT 8SM OVC110 12/11 A3017 RMK AO2 SLP201 T01170111
KSQL - San Carlos Airpo, California, USA
Distance from station: SSW 18mi, 29km
Updated: Sat, 25-Mar-2017 12:35am PDT
Mostly cloudy
Mostly cloudy
 Wind from calm
Wind: Calm
Temperature: 54°F , 12°C
Dew Point: 54°F , 12°C
Humidity: 100%
Barometer: 30.17 inHg , 1021.7 hPa
Clouds: Mostly cloudy
Visibility: 9 miles , 14 km
Cloud details: Few Clouds 400 ft
Mostly cloudy 6000 ft
2017/03/25 07:35 KSQL 250735Z AUTO 00000KT 9SM FEW004 BKN060 12/12 A3017 RMK AO2
KLVK - Livermore, California, USA
Distance from station: ESE 20mi, 31km
Updated: Sat, 25-Mar-2017 12:16am PDT
Overcast
Overcast
 Wind from calm
Wind: Calm
Temperature: 54°F , 12°C
Dew Point: 50°F , 10°C
Humidity: 88%
Barometer: 30.16 inHg , 1021.3 hPa
Clouds: Overcast
Visibility: 10 miles , 16 km
Cloud details: Few Clouds 700 ft
Overcast 4800 ft
2017/03/25 07:16 KLVK 250716Z AUTO 00000KT 10SM FEW007 OVC048 12/10 A3016 RMK AO2 T01170100 TSNO
 
KPAO - Palo Alto, California, USA
Distance from station: S 21mi, 34km
Updated: Fri, 24-Mar-2017 8:47pm PDT
NOT Current
Overcast
Overcast
 Wind from E
Wind: E 8 mph , 13 km/h
Temperature: 55°F , 13°C
Dew Point: 54°F , 12°C
Humidity: 94%
Barometer: 30.17 inHg , 1021.7 hPa
Clouds: Overcast
Visibility: 10 miles , 16 km
Cloud details: Partly cloudy 1600 ft
Overcast 3000 ft
2017/03/25 03:47 KPAO 250347Z 10007KT 10SM SCT016 OVC030 13/12 A3017 RMK LAST
KHAF - Half Moon Bay, California, USA
Distance from station: SW 25mi, 41km
Updated: Sat, 25-Mar-2017 12:35am PDT
Overcast
Overcast
 Wind from N
Wind: N 5 mph , 7 km/h
Temperature: 50°F , 10°C
Wind Chill: 48°F , 9°C
Dew Point: 48°F , 9°C
Humidity: 94%
Barometer: 30.17 inHg , 1021.7 hPa
Clouds: Overcast
Visibility: 10 miles , 16 km
Cloud details: Mostly cloudy 300 ft
Overcast 800 ft
2017/03/25 07:35 KHAF 250735Z AUTO 01004KT 10SM BKN003 OVC008 10/09 A3017 RMK AO2
KNUQ - Moffett Nas/Mtn, California, USA
Distance from station: SSE 26mi, 42km
Updated: Sat, 25-Mar-2017 12:29am PDT
Overcast
Overcast
 Wind from calm
Wind: Calm
Temperature: 54°F , 12°C
Dew Point: 54°F , 12°C
Humidity: 100%
Barometer: 30.18 inHg , 1022 hPa
Clouds: Overcast
Visibility: 10 miles , 16 km
Cloud details: Mostly cloudy 2200 ft
Overcast 5500 ft
2017/03/25 07:29 KNUQ 250729Z 00000KT 10SM BKN022 OVC055 12/12 A3018 RMK AO2 T01220122
 
KAPC - Napa, California, USA
Distance from station: NNW 30mi, 49km
Updated: Sat, 25-Mar-2017 12:29am PDT
Light rain, Overcast
Light rain, Overcast
 Wind from W
Wind: W 7 mph , 11 km/h
Temperature: 55°F , 13°C
Dew Point: 50°F , 10°C
Humidity: 82%
Barometer: 30.17 inHg , 1021.7 hPa
Summary: Light rain
Clouds: Overcast
Visibility: 10 miles , 16 km
Cloud details: Few Clouds 1200 ft
Mostly cloudy 7000 ft
Overcast 8000 ft
2017/03/25 07:29 KAPC 250729Z 28006KT 10SM -RA FEW012 BKN070 OVC080 13/10 A3017 RMK AO2 RAB19 P0000 T01280100
KSJC - San Jose, California, USA
Distance from station: SSE 31mi, 50km
Updated: Fri, 24-Mar-2017 11:53pm PDT
Overcast
Overcast
 Wind from SE
Wind: SE 5 mph , 7 km/h
Temperature: 54°F , 12°C
Dew Point: 52°F , 11°C
Humidity: 94%
Barometer: 30.17 inHg , 1021.7 hPa
Clouds: Overcast
Visibility: 10 miles , 16 km
Cloud details: Few Clouds 500 ft
Overcast 3300 ft
2017/03/25 06:53 KSJC 250653Z 13004KT 10SM FEW005 OVC033 12/11 A3017 RMK AO2 SLP216 LAST T01220106 $
KDVO - Novato/Gnoss Fld, California, USA
Distance from station: NW 34mi, 54km
Updated: Sat, 25-Mar-2017 12:35am PDT
Overcast
Overcast
 Wind from calm
Wind: Calm
Temperature: 52°F , 11°C
Dew Point: 50°F , 10°C
Humidity: 94%
Barometer: 30.18 inHg , 1022 hPa
Clouds: Overcast
Visibility: 10 miles , 16 km
Cloud details: Overcast 6500 ft
2017/03/25 07:35 KDVO 250735Z AUTO 00000KT 10SM OVC065 11/10 A3018 RMK AO2
 
KRHV - San Jose/Reid, California, USA
Distance from station: SSE 37mi, 59km
Updated: Fri, 24-Mar-2017 9:47pm PDT
NOT Current
Overcast
Overcast
 Wind from SSW
Wind: SSW 7 mph , 11 km/h
Temperature: 54°F , 12°C
Dew Point: 52°F , 11°C
Humidity: 94%
Barometer: 30.20 inHg , 1022.7 hPa
Clouds: Overcast
Visibility: 2 miles , 3 km
Cloud details: Overcast 1300 ft
2017/03/25 04:47 KRHV 250447Z 21006KT 2SM OVC013 12/11 A3020
KSUU - Travis Afb/Fairf, California, USA
Distance from station: NNE 37mi, 59km
Updated: Sat, 25-Mar-2017 12:24am PDT
Light rain, Mist, Overcast
Light rain, Mist, Overcast
 Wind from WSW
Wind: WSW 3 mph , 6 km/h
Temperature: 54°F , 12°C
Dew Point: 52°F , 11°C
Humidity: 94%
Barometer: 30.15 inHg , 1021 hPa
Summary: Light rain, Mist
Clouds: Overcast
Visibility: 6 miles , 10 km
Cloud details: Mostly cloudy 1300 ft
Overcast 9000 ft
2017/03/25 07:24 KSUU 250724Z AUTO 25003KT 6SM -RA BR BKN013 OVC090 12/11 A3015 RMK AO2 RAB24
KO69 - Petaluma, California, USA
Distance from station: NW 41mi, 66km
Updated: Sat, 25-Mar-2017 12:35am PDT
Overcast
Overcast
 Wind from calm
Wind: Calm
Temperature: 50°F , 10°C
Dew Point: 50°F , 10°C
Humidity: 100%
Barometer: 30.20 inHg , 1022.7 hPa
Clouds: Overcast
Visibility: 10 miles , 16 km
Cloud details: Partly cloudy 4200 ft
Overcast 6500 ft
2017/03/25 07:35 KO69 250735Z AUTO 00000KT 10SM SCT042 OVC065 10/10 A3020 RMK AO1
 
KVCB - Vacaville, California, USA
Distance from station: NNE 44mi, 71km
Updated: Sat, 25-Mar-2017 12:04am PDT
Mist, Overcast
Mist, Overcast
 Wind from S
Wind: S 3 mph , 6 km/h
Temperature: 54°F , 12°C
Dew Point: 54°F , 12°C
Humidity: 100%
Barometer: 30.18 inHg , 1022 hPa
Summary: Mist
Clouds: Overcast
Visibility: 4 miles , 6 km
Cloud details: Few Clouds 400 ft
Partly cloudy 2700 ft
Overcast 9000 ft
2017/03/25 07:04 KVCB 250704Z AUTO 17003KT 4SM BR FEW004 SCT027 OVC090 12/12 A3018 RMK AO2 T01170117